createdAt,value
2023-10-29T00:01:08.546Z,65.37755547372275
2023-10-29T00:04:28.010Z,65.30132243162895
2023-10-29T00:07:48.174Z,65.58430691797551
2023-10-29T00:11:07.546Z,65.43626909219297
2023-10-29T00:14:27.460Z,65.45425845716329
2023-10-29T00:17:46.480Z,65.58894965932369
2023-10-29T00:21:05.967Z,65.45534248463626
2023-10-29T00:24:25.250Z,65.41007430297411
2023-10-29T00:27:45.520Z,65.52424657116377
2023-10-29T00:31:04.625Z,65.43816009401512
2023-10-29T00:34:23.474Z,65.35688652360025
2023-10-29T00:37:43.406Z,65.74316963928754
2023-10-29T00:44:00.900Z,65.59723341118894
2023-10-29T00:50:15.274Z,65.66133261128346
2023-10-29T00:53:34.145Z,65.57808755620937
2023-10-29T00:56:54.400Z,65.79510282075253
2023-10-29T01:01:24.684Z,65.7124919809302
2023-10-29T01:07:47.646Z,65.87517657253538
2023-10-29T01:11:07.404Z,65.75162342909844
2023-10-29T01:14:26.191Z,65.73670771975367
2023-10-29T01:17:46.580Z,65.88740015405808
2023-10-29T01:21:06.445Z,65.83950211917936
2023-10-29T01:24:26.337Z,65.81431853776117
2023-10-29T01:27:46.535Z,65.96162706375507
2023-10-29T01:33:11.607Z,65.73198551358848
2023-10-29T01:36:31.224Z,65.98655332464682
2023-10-29T01:43:30.337Z,65.6384072867116
2023-10-29T01:46:50.324Z,65.92069115358466
2023-10-29T01:50:10.105Z,65.81933702203956
2023-10-29T01:53:29.916Z,65.77046807666176
2023-10-29T01:56:49.424Z,65.89574413939864
2023-10-29T02:00:08.848Z,65.73479037482888
2023-10-29T02:03:28.738Z,65.7441682236088
2023-10-29T02:06:49.030Z,65.7824886849659
2023-10-29T02:10:08.808Z,65.65934513774829
2023-10-29T02:13:27.669Z,65.68400606451686
2023-10-29T02:16:47.450Z,65.81391275521963
2023-10-29T02:20:07.320Z,65.7114303309742
2023-10-29T02:23:27.417Z,65.65406596821484
2023-10-29T02:26:47.649Z,65.62791619157868
2023-10-29T02:30:07.362Z,65.55438809846797
2023-10-29T02:33:26.397Z,65.70879176632339
2023-10-29T02:36:46.477Z,65.62589301845705
2023-10-29T02:40:06.216Z,65.47891334561425
2023-10-29T02:43:25.495Z,65.5356285302717
2023-10-29T02:46:44.967Z,65.54947882682531
2023-10-29T02:50:04.645Z,64.53419343956689
2023-10-29T02:53:24.066Z,64.94698107228938
2023-10-29T02:58:10.227Z,65.74123217236536
2023-10-29T03:01:30.029Z,65.74572854313976
2023-10-29T03:06:16.344Z,65.86812736486333
2023-10-29T03:09:35.704Z,65.676877765324
2023-10-29T03:12:55.495Z,65.62911782364445
2023-10-29T03:16:15.630Z,66.13867059330867
2023-10-29T03:20:32.640Z,65.92328556688965
2023-10-29T03:25:12.248Z,65.96348416477579
2023-10-29T03:28:31.493Z,65.8698284016198
2023-10-29T03:33:30.746Z,65.89043987941231
2023-10-29T03:36:51.017Z,66.07953177861363
2023-10-29T03:40:10.099Z,65.85129226065715
2023-10-29T03:43:29.758Z,65.91284483765156
2023-10-29T03:46:49.036Z,66.04818610877304
2023-10-29T03:50:21.418Z,65.84667438736838
2023-10-29T03:53:40.934Z,65.87295580011421
2023-10-29T03:57:01.098Z,66.01366951149735
2023-10-29T04:00:20.776Z,65.88568397454775
2023-10-29T04:03:40.677Z,65.88721240441464
2023-10-29T04:07:00.333Z,66.00175923179779
2023-10-29T04:10:19.997Z,65.9851275816237
2023-10-29T04:13:39.372Z,65.88784999884008
2023-10-29T04:16:59.573Z,66.06321502628931
2023-10-29T04:22:07.581Z,65.84077049484755
2023-10-29T04:26:57.179Z,65.90631980099079
2023-10-29T04:30:16.805Z,65.82414818783207
2023-10-29T04:33:36.401Z,65.87852517639055
2023-10-29T04:36:56.308Z,65.72703892000466
2023-10-29T04:40:15.576Z,65.31306579821472
2023-10-29T04:43:34.343Z,65.36165935576429
2023-10-29T04:50:28.782Z,64.46487640787568
2023-10-29T04:54:48.085Z,64.36116699262406
2023-10-29T04:58:07.506Z,64.28934496553292
2023-10-29T05:01:26.959Z,64.19452243576067
2023-10-29T05:04:46.914Z,64.39270830483757
2023-10-29T05:08:06.947Z,64.14875714990211
2023-10-29T05:11:26.309Z,63.864355383034315
2023-10-29T05:14:45.699Z,63.971887204973996
2023-10-29T05:18:05.560Z,63.95568951391337
2023-10-29T05:21:24.839Z,63.961469301744046
2023-10-29T05:24:44.346Z,64.1971657946584
2023-10-29T05:28:04.099Z,63.81813523013537
2023-10-29T05:31:24.029Z,63.653081554688704
2023-10-29T05:34:43.914Z,63.831488434673965
2023-10-29T05:38:03.867Z,63.6241475852277
2023-10-29T05:41:23.733Z,63.635593733121766
2023-10-29T05:44:42.734Z,64.14669250089753
2023-10-29T05:48:02.993Z,63.9023544431406
2023-10-29T05:53:45.154Z,63.8127064219515
2023-10-29T05:57:05.084Z,63.95570384621681
2023-10-29T06:00:25.041Z,63.868330307162964
2023-10-29T06:03:44.372Z,64.02811772148561
2023-10-29T06:07:04.742Z,64.63589163530928
2023-10-29T06:10:24.284Z,65.12655192636925
2023-10-29T06:13:43.570Z,65.23681677927277
2023-10-29T06:17:15.815Z,65.5148294542661
2023-10-29T06:20:42.339Z,65.63287307297352
2023-10-29T06:24:02.313Z,65.77635172937735
2023-10-29T06:27:22.104Z,65.80756060886918
2023-10-29T06:30:42.164Z,65.8977839648474
2023-10-29T06:34:01.333Z,65.88737459341034
2023-10-29T06:37:20.915Z,66.03789562642041
2023-10-29T06:40:40.791Z,66.0237275273946
2023-10-29T06:44:00.692Z,66.08639446855959
2023-10-29T06:47:20.846Z,66.00741296730315
2023-10-29T06:50:39.955Z,66.07546357577327
2023-10-29T06:54:00.461Z,66.03410385079957
2023-10-29T06:57:19.905Z,66.12085354309038
2023-10-29T07:00:39.501Z,65.89834174478871
2023-10-29T07:03:59.680Z,65.75901213325733
2023-10-29T07:07:19.766Z,65.74872067124448
2023-10-29T07:13:01.101Z,65.4709849244391
2023-10-29T07:16:21.673Z,65.3827721946716
2023-10-29T07:19:41.144Z,63.850860070024304
2023-10-29T07:23:00.616Z,63.09459143650088
2023-10-29T07:26:20.514Z,64.58826760917653
2023-10-29T07:29:53.313Z,65.33664809135026
2023-10-29T07:33:13.332Z,65.54527177332044
2023-10-29T07:36:33.333Z,65.52585288438183
2023-10-29T07:39:52.933Z,65.63388985300101
2023-10-29T07:43:12.832Z,65.70168033100933
2023-10-29T07:46:31.894Z,65.69429645843981
2023-10-29T07:49:51.977Z,65.74062539439463
2023-10-29T07:53:11.865Z,65.53644257320106
2023-10-29T07:56:31.538Z,65.38291199521733
2023-10-29T07:59:51.333Z,65.39118566177399
2023-10-29T08:03:11.201Z,65.28344712028809
2023-10-29T08:06:30.923Z,64.85238011332572
2023-10-29T08:09:51.592Z,65.25003755297546
2023-10-29T08:13:10.968Z,65.45849103743959
2023-10-29T08:16:29.754Z,65.24665205891588
2023-10-29T08:19:49.236Z,65.24457235508007
2023-10-29T08:23:09.196Z,65.40522068717512
2023-10-29T08:26:28.986Z,65.25501256690502
2023-10-29T08:29:48.996Z,65.0381479147631
2023-10-29T08:33:08.093Z,64.72568990941946
2023-10-29T08:36:27.612Z,64.74809974682032
2023-10-29T08:39:47.695Z,64.91823727270796
2023-10-29T08:43:07.290Z,65.42409064702753
2023-10-29T08:46:42.493Z,65.76990451680554
2023-10-29T08:50:02.590Z,66.04433475615748
2023-10-29T08:53:22.482Z,66.19872469569256
2023-10-29T08:56:43.014Z,65.94045893340507
2023-10-29T09:00:03.421Z,66.25785680782276
2023-10-29T09:03:22.452Z,64.52377310548022
2023-10-29T09:06:42.241Z,65.75225126778163
2023-10-29T09:10:02.612Z,66.34780453929767
2023-10-29T09:13:22.506Z,66.69687238672113
2023-10-29T09:16:42.445Z,66.9489901790695
2023-10-29T09:20:03.595Z,67.26631927649048
2023-10-29T09:23:23.937Z,67.41137658581907
2023-10-29T09:26:43.754Z,67.41164345889419
2023-10-29T09:30:03.961Z,67.47477250061847
2023-10-29T09:38:00.966Z,66.3158207910491
2023-10-29T09:41:20.756Z,66.65633171585563
2023-10-29T09:44:40.151Z,66.76413429098854
2023-10-29T09:48:00.227Z,66.63388247189968
2023-10-29T09:51:34.834Z,66.84253686300465
2023-10-29T09:54:55.025Z,66.54643762900537
2023-10-29T09:58:14.807Z,66.80666654756837
2023-10-29T10:01:44.642Z,67.05177897837059
2023-10-29T10:05:12.198Z,66.64023660418387
2023-10-29T10:08:45.515Z,66.66903830366027
2023-10-29T10:12:05.801Z,66.76050188268634
2023-10-29T10:15:25.653Z,66.6130376224709
2023-10-29T10:18:46.218Z,66.57230528943089
2023-10-29T10:22:05.624Z,66.57681074608095
2023-10-29T10:25:25.313Z,66.5159981604161
2023-10-29T10:28:45.035Z,65.43732634023118
2023-10-29T10:32:05.312Z,65.71657558349109
2023-10-29T10:35:25.574Z,66.29180487982894
2023-10-29T10:38:45.763Z,66.6498340556121
2023-10-29T10:43:13.338Z,66.55916088327797
2023-10-29T10:46:33.539Z,66.71186059261866
2023-10-29T10:49:53.206Z,66.6268374670118
2023-10-29T10:53:12.474Z,66.36217612813034
2023-10-29T10:56:33.489Z,66.1417514090228
2023-10-29T10:59:53.208Z,65.9621181603781
2023-10-29T11:03:25.597Z,65.85041076254612
2023-10-29T11:06:52.292Z,65.59806229927082
2023-10-29T11:12:24.040Z,65.24260291437577
2023-10-29T11:17:25.143Z,65.58034663122457
2023-10-29T11:20:45.420Z,65.58083960830737
2023-10-29T11:24:05.018Z,65.29355575313573
2023-10-29T11:30:00.973Z,64.95632994975564
2023-10-29T11:33:23.299Z,65.62872008702307
2023-10-29T11:39:44.265Z,65.43956140992329
2023-10-29T11:43:04.089Z,65.84871024920064
2023-10-29T11:46:24.305Z,65.80706069160594
2023-10-29T11:52:21.753Z,65.62398886730327
2023-10-29T11:55:41.225Z,65.63781559839762
2023-10-29T11:59:01.119Z,65.48639188411111
2023-10-29T12:02:20.076Z,64.9099480800781
2023-10-29T12:05:39.773Z,64.96298408435119
2023-10-29T12:08:59.880Z,65.17720663366964
2023-10-29T12:12:19.531Z,65.12240230584649
2023-10-29T12:15:38.993Z,65.52770448177004
2023-10-29T12:18:58.678Z,65.44798110127938
2023-10-29T12:22:17.534Z,65.50541006607078
2023-10-29T12:25:37.118Z,65.05883760460418
2023-10-29T12:28:58.149Z,65.55631900884208
2023-10-29T12:32:46.886Z,65.51100401043321
2023-10-29T12:38:00.182Z,65.03532389664025
2023-10-29T12:41:20.226Z,65.08996618737109
2023-10-29T12:44:39.923Z,65.05741422140358
2023-10-29T12:48:00.140Z,65.43533579014452
2023-10-29T12:51:19.818Z,65.32643561428345
2023-10-29T12:54:38.825Z,64.89505670691588
2023-10-29T12:59:50.568Z,65.12664576891397
2023-10-29T13:03:25.337Z,65.21401626713676
2023-10-29T13:06:45.632Z,65.06079073473391
2023-10-29T13:10:05.455Z,65.19787583602725
2023-10-29T13:13:25.699Z,64.77494398888079
2023-10-29T13:19:34.698Z,65.40403642704437
2023-10-29T13:22:54.167Z,65.56060250845458
2023-10-29T13:26:13.433Z,65.83705957284081
2023-10-29T13:29:32.804Z,65.11700044907778
2023-10-29T13:32:52.378Z,65.01064404639854
2023-10-29T13:36:12.112Z,65.70529259015531
2023-10-29T13:39:31.024Z,65.63400262996649
2023-10-29T13:42:50.700Z,65.8259807957388
2023-10-29T13:46:10.807Z,65.9796672300416
2023-10-29T13:49:37.641Z,66.28487263611414
2023-10-29T13:52:57.542Z,65.67261058675122
2023-10-29T13:56:17.204Z,62.528275680710664
2023-10-29T13:59:36.383Z,55.47948211886987
2023-10-29T14:02:58.107Z,55.13885840972768
2023-10-29T14:06:20.126Z,58.91032981639716
2023-10-29T14:09:39.404Z,60.133640718155846
2023-10-29T14:13:00.349Z,61.337288078474664
2023-10-29T14:16:20.485Z,62.277170166499836
2023-10-29T14:19:39.889Z,62.768158268983896
2023-10-29T14:23:00.292Z,62.92119833897842
2023-10-29T14:26:19.968Z,63.08189792844195
2023-10-29T14:29:39.791Z,63.137404311778
2023-10-29T14:33:00.186Z,63.36286802308819
2023-10-29T14:36:19.847Z,63.48346506593916
2023-10-29T14:39:39.595Z,63.94213282712353
2023-10-29T14:45:16.324Z,64.65166146852648
2023-10-29T14:48:36.444Z,65.28563833001772
2023-10-29T14:51:56.156Z,65.50482439759027
2023-10-29T15:00:40.522Z,65.47834489632336
2023-10-29T15:04:05.893Z,65.51993201957455
2023-10-29T15:08:49.033Z,65.67446175529217
2023-10-29T15:12:57.406Z,65.31167334960315
2023-10-29T15:16:17.511Z,65.38676357189642
2023-10-29T15:19:37.662Z,65.70802161802332
2023-10-29T15:23:02.732Z,65.85425504762372
2023-10-29T15:26:22.763Z,66.07162577464969
2023-10-29T15:29:42.681Z,65.77618124401661
2023-10-29T15:33:01.978Z,65.65655233688562
2023-10-29T15:36:21.456Z,65.84856332375114
2023-10-29T15:39:41.511Z,66.05564097202087
2023-10-29T15:43:01.717Z,65.96508011668207
2023-10-29T15:46:21.703Z,66.24283316831836
2023-10-29T15:49:41.460Z,66.25728809852006
2023-10-29T15:53:01.552Z,66.1184595176134
2023-10-29T16:01:46.503Z,66.1395781537945
2023-10-29T16:05:06.439Z,66.22723690476938
2023-10-29T16:08:26.231Z,66.10269095250905
2023-10-29T16:11:46.014Z,65.80497134703126
2023-10-29T16:15:06.043Z,66.03922430231731
2023-10-29T16:19:16.456Z,66.32064396340995
2023-10-29T16:22:35.932Z,65.50551276549139
2023-10-29T16:25:56.029Z,65.43289886735727
2023-10-29T16:29:16.024Z,65.63750929027714
2023-10-29T16:32:36.215Z,65.56652702222311
2023-10-29T16:36:04.305Z,65.42620767349024
2023-10-29T16:39:24.106Z,65.44050247776137
2023-10-29T16:44:28.701Z,64.84442270979605
2023-10-29T16:47:48.508Z,65.09921816183171
2023-10-29T16:51:08.179Z,64.79832210012994
2023-10-29T16:54:30.149Z,65.36768920131473
2023-10-29T16:57:52.435Z,65.60218914424215
2023-10-29T17:01:12.490Z,65.32116072559016
2023-10-29T17:07:57.959Z,64.89797279403697
2023-10-29T17:11:17.799Z,64.52240190774761
2023-10-29T17:14:37.589Z,64.23539852245987
2023-10-29T17:20:24.029Z,64.63872385283258
2023-10-29T17:23:44.017Z,64.88029025606147
2023-10-29T17:27:03.434Z,65.2606759679035
2023-10-29T17:30:22.961Z,65.28277494152796
2023-10-29T17:34:25.350Z,65.26154399973566
2023-10-29T17:37:47.802Z,65.29813505142077
2023-10-29T17:41:07.040Z,65.21442324228383
2023-10-29T17:44:26.890Z,65.36559682280546
2023-10-29T17:47:46.627Z,65.62622645911271
2023-10-29T17:51:05.733Z,65.68315560055284
2023-10-29T17:54:25.501Z,65.70888753006425
2023-10-29T17:57:46.252Z,61.8216592713003
2023-10-29T18:02:10.960Z,64.49204600230242
2023-10-29T18:05:34.651Z,65.1861950323394
2023-10-29T18:08:56.700Z,65.52588779955812
2023-10-29T18:12:17.192Z,65.51467273368304
2023-10-29T18:15:36.745Z,65.45145187135225
2023-10-29T18:18:56.903Z,65.41543985741625
2023-10-29T18:22:16.618Z,65.36604703558105
2023-10-29T18:25:36.198Z,65.48726958520972
2023-10-29T18:28:57.513Z,65.43947702204306
2023-10-29T18:35:07.388Z,65.50391901647791
2023-10-29T18:41:24.102Z,65.54230333658973
2023-10-29T18:44:43.571Z,65.5245529452407
2023-10-29T18:48:03.683Z,65.53092383288796
2023-10-29T18:51:22.971Z,65.42935297878661
2023-10-29T18:54:43.429Z,65.31823732303228
2023-10-29T18:58:04.157Z,65.32655189311774
2023-10-29T19:01:24.501Z,65.2852297796847
2023-10-29T19:04:44.500Z,65.38690884344624
2023-10-29T19:08:04.633Z,65.3938868781503
2023-10-29T19:11:24.202Z,65.28041362559115
2023-10-29T19:14:44.376Z,65.12374431248001
2023-10-29T19:18:04.433Z,65.1530480973619
2023-10-29T19:21:23.500Z,65.0574914089559
2023-10-29T19:26:44.517Z,65.287417567211
2023-10-29T19:30:04.821Z,65.14655988161385
2023-10-29T19:33:24.465Z,65.16868192599193
2023-10-29T19:36:44.386Z,65.13736726952965
2023-10-29T19:41:56.358Z,65.17434352217306
2023-10-29T19:45:16.451Z,65.14262753704685
2023-10-29T19:48:36.290Z,65.16409554920492
2023-10-29T19:55:51.291Z,65.09013118772351
2023-10-29T20:01:41.730Z,65.1182016393614
2023-10-29T20:05:02.498Z,65.10380444137077
2023-10-29T20:08:23.015Z,65.09092012843539
2023-10-29T20:11:42.695Z,64.95406551716157
2023-10-29T20:15:02.531Z,65.41130152040789
2023-10-29T20:18:28.733Z,65.19224310280075
2023-10-29T20:21:49.315Z,65.06791896633854
2023-10-29T20:25:26.999Z,63.647268042588905
2023-10-29T20:29:23.148Z,64.03517430639187
2023-10-29T20:32:43.085Z,64.39479937510325
2023-10-29T20:36:02.739Z,64.47328022910634
2023-10-29T20:39:22.800Z,64.97441351405286
2023-10-29T20:42:41.959Z,65.22142301882329
2023-10-29T20:46:01.635Z,64.97509208396669
2023-10-29T20:49:21.740Z,64.88560133617308
2023-10-29T20:52:40.688Z,65.09529132705097
2023-10-29T20:56:00.477Z,65.24516940602581
2023-10-29T20:59:20.461Z,65.29642799367946
2023-10-29T21:02:40.271Z,65.23045205579291
2023-10-29T21:06:00.463Z,65.12148484909301
2023-10-29T21:09:20.771Z,65.21582714265453
2023-10-29T21:12:40.723Z,65.26352192077296
2023-10-29T21:16:00.818Z,65.06471793223602
2023-10-29T21:19:26.899Z,65.31635331141806
2023-10-29T21:24:47.580Z,65.36399051299594
2023-10-29T21:28:07.112Z,65.16842932801742
2023-10-29T21:31:26.935Z,65.49099640856849
2023-10-29T21:34:47.299Z,65.33334987563731
2023-10-29T21:38:06.985Z,65.13337779375885
2023-10-29T21:41:26.874Z,65.40232711458837
2023-10-29T21:44:46.079Z,65.38331946527357
2023-10-29T21:48:05.784Z,65.3755229162298
2023-10-29T21:51:25.520Z,65.55166799684106
2023-10-29T21:54:45.199Z,65.38816473449897
2023-10-29T21:58:05.576Z,65.29945383677423
2023-10-29T22:01:25.158Z,65.3540062632364
2023-10-29T22:04:44.263Z,65.17758769288479
2023-10-29T22:08:04.318Z,65.38157467810302
2023-10-29T22:11:36.792Z,65.30345758295017
2023-10-29T22:14:56.402Z,65.2059233227218
2023-10-29T22:18:16.291Z,65.26691906800937
2023-10-29T22:21:35.552Z,65.43583169934143
2023-10-29T22:24:55.188Z,65.22106637749869
2023-10-29T22:29:48.113Z,65.36537638934875
2023-10-29T22:33:08.160Z,65.2747100857728
2023-10-29T22:36:27.572Z,64.9191425244042
2023-10-29T22:41:44.293Z,65.2467617703673
2023-10-29T22:46:25.912Z,64.96839296281979
2023-10-29T22:49:44.983Z,65.19424725305184
2023-10-29T22:53:23.020Z,65.13100246110353
2023-10-29T22:59:51.120Z,65.14471784882339
2023-10-29T23:05:40.707Z,65.12668170921133
2023-10-29T23:09:00.946Z,65.31932953054506
2023-10-29T23:12:20.449Z,65.13662887169669
2023-10-29T23:15:40.512Z,65.10523187221656
2023-10-29T23:19:00.443Z,65.20297930568756
2023-10-29T23:22:20.473Z,65.41593225249355
2023-10-29T23:25:39.499Z,65.13576408754106
2023-10-29T23:28:59.704Z,65.37784399333466
2023-10-29T23:32:20.401Z,65.24867395476208
2023-10-29T23:35:40.179Z,65.24859301033106
2023-10-29T23:38:59.666Z,65.31682760618891
2023-10-29T23:42:19.806Z,65.24887156777865
2023-10-29T23:45:40.530Z,65.30357864503499
2023-10-29T23:49:00.844Z,65.3110357458345
2023-10-29T23:52:20.719Z,65.36399229472822
2023-10-29T23:55:41.124Z,65.15701574405772
2023-10-29T23:59:00.795Z,65.42064956652527
